createdAt,value
2022-12-19T00:02:04.541Z,78.17
2022-12-19T00:04:33.998Z,66.47
2022-12-19T00:07:03.419Z,62.55
2022-12-19T00:09:32.753Z,60.58
2022-12-19T00:12:04.380Z,44.97
2022-12-19T00:14:35.080Z,73.53
2022-12-19T00:17:04.597Z,57.83
2022-12-19T00:19:34.521Z,69.35
2022-12-19T00:22:08.278Z,66.82
2022-12-19T00:24:40.269Z,61.17
2022-12-19T00:27:09.670Z,42.33
2022-12-19T00:29:40.351Z,57.50
2022-12-19T00:32:09.896Z,62.83
2022-12-19T00:34:44.548Z,73.07
2022-12-19T00:37:14.103Z,71.57
2022-12-19T00:39:43.230Z,63.07
2022-12-19T00:42:12.831Z,86.85
2022-12-19T00:44:43.332Z,71.90
2022-12-19T00:47:12.796Z,84.30
2022-12-19T00:49:41.931Z,75.80
2022-12-19T00:54:40.940Z,74.00
2022-12-19T00:59:39.909Z,74.87
2022-12-19T01:02:10.981Z,64.65
2022-12-19T01:04:41.997Z,76.47
2022-12-19T01:07:15.526Z,93.93
2022-12-19T01:09:45.007Z,69.07
2022-12-19T01:12:32.565Z,73.93
2022-12-19T01:15:04.375Z,83.43
2022-12-19T01:17:37.745Z,67.00
2022-12-19T01:20:15.263Z,49.85
2022-12-19T01:22:45.205Z,77.73
2022-12-19T01:25:16.260Z,69.27
2022-12-19T01:27:45.895Z,70.17
2022-12-19T01:30:15.382Z,62.00
2022-12-19T01:32:46.351Z,83.03
2022-12-19T01:35:21.487Z,77.80
2022-12-19T01:37:52.205Z,85.57
2022-12-19T01:40:37.733Z,77.23
2022-12-19T01:43:08.031Z,67.50
2022-12-19T01:48:22.496Z,66.73
2022-12-19T01:51:02.700Z,77.00
2022-12-19T01:53:43.745Z,78.63
2022-12-19T01:56:20.793Z,65.80
2022-12-19T01:58:57.960Z,61.03
2022-12-19T02:01:50.919Z,70.83
2022-12-19T02:04:32.478Z,79.73
2022-12-19T02:07:09.346Z,54.93
2022-12-19T02:09:47.695Z,63.57
2022-12-19T02:12:24.492Z,77.03
2022-12-19T02:14:57.417Z,66.17
2022-12-19T02:17:40.134Z,86.80
2022-12-19T02:20:39.024Z,67.87
2022-12-19T02:23:28.178Z,60.67
2022-12-19T02:26:18.321Z,63.80
2022-12-19T02:29:07.152Z,64.80
2022-12-19T02:31:48.728Z,55.57
2022-12-19T02:34:23.970Z,77.13
2022-12-19T02:37:08.938Z,67.73
2022-12-19T02:39:46.753Z,66.20
2022-12-19T02:42:22.530Z,75.43
2022-12-19T02:44:54.961Z,76.23
2022-12-19T02:47:26.645Z,58.33
2022-12-19T02:49:57.608Z,67.87
2022-12-19T02:52:49.099Z,63.03
2022-12-19T02:55:23.226Z,79.87
2022-12-19T02:58:39.955Z,74.47
2022-12-19T03:01:19.445Z,63.50
2022-12-19T03:04:02.964Z,57.73
2022-12-19T03:06:38.146Z,55.03
2022-12-19T03:09:15.407Z,73.30
2022-12-19T03:11:47.937Z,66.20
2022-12-19T03:14:22.247Z,65.77
2022-12-19T03:16:56.218Z,68.73
2022-12-19T03:19:27.306Z,66.30
2022-12-19T03:21:56.710Z,69.50
2022-12-19T03:24:27.251Z,71.22
2022-12-19T03:27:00.873Z,64.87
2022-12-19T03:29:35.382Z,72.90
2022-12-19T03:36:30.152Z,55.97
2022-12-19T03:39:01.235Z,63.73
2022-12-19T03:41:49.173Z,55.63
2022-12-19T03:44:22.141Z,58.87
2022-12-19T03:46:59.560Z,55.83
2022-12-19T03:49:29.335Z,66.97
2022-12-19T03:52:04.521Z,53.05
2022-12-19T03:54:37.817Z,53.10
2022-12-19T03:57:13.988Z,55.87
2022-12-19T03:59:50.393Z,59.90
2022-12-19T04:02:22.257Z,52.83
2022-12-19T04:04:58.614Z,52.37
2022-12-19T04:07:29.971Z,49.83
2022-12-19T04:10:05.109Z,57.80
2022-12-19T04:12:37.840Z,47.80
2022-12-19T04:15:09.137Z,47.43
2022-12-19T04:17:43.617Z,44.67
2022-12-19T04:20:15.222Z,49.27
2022-12-19T04:22:52.827Z,58.87
2022-12-19T04:25:29.512Z,45.57
2022-12-19T04:28:02.713Z,46.30
2022-12-19T04:30:36.508Z,58.07
2022-12-19T04:33:06.441Z,50.17
2022-12-19T04:35:37.889Z,57.77
2022-12-19T04:38:08.668Z,51.05
2022-12-19T04:40:41.501Z,51.97
2022-12-19T04:43:11.334Z,51.07
2022-12-19T04:45:43.224Z,66.47
2022-12-19T04:48:12.622Z,51.07
2022-12-19T04:50:42.071Z,45.83
2022-12-19T04:53:13.027Z,51.08
2022-12-19T04:55:42.677Z,41.73
2022-12-19T04:58:16.313Z,55.47
2022-12-19T05:00:48.625Z,55.87
2022-12-19T05:03:17.880Z,43.13
2022-12-19T05:05:47.469Z,45.08
2022-12-19T05:08:18.031Z,40.67
2022-12-19T05:10:47.586Z,36.43
2022-12-19T05:13:16.720Z,51.27
2022-12-19T05:15:46.311Z,57.22
2022-12-19T05:18:16.548Z,28.23
2022-12-19T05:20:49.371Z,33.95
2022-12-19T05:23:20.101Z,45.90
2022-12-19T05:25:49.953Z,44.27
2022-12-19T05:28:19.513Z,67.38
2022-12-19T05:30:52.306Z,62.13
2022-12-19T05:33:21.904Z,61.73
2022-12-19T05:35:51.327Z,60.70
2022-12-19T05:38:21.982Z,68.47
2022-12-19T05:40:51.513Z,53.63
2022-12-19T05:43:20.674Z,58.27
2022-12-19T05:45:50.240Z,64.63
2022-12-19T05:48:19.376Z,45.03
2022-12-19T05:50:51.979Z,33.50
2022-12-19T05:53:25.985Z,59.17
2022-12-19T05:56:03.843Z,60.47
2022-12-19T05:58:33.602Z,57.63
2022-12-19T06:01:07.439Z,55.17
2022-12-19T06:03:36.889Z,63.23
2022-12-19T06:06:08.519Z,62.22
2022-12-19T06:08:39.544Z,54.57
2022-12-19T06:11:10.830Z,57.80
2022-12-19T06:13:40.943Z,61.97
2022-12-19T06:16:12.923Z,64.43
2022-12-19T06:18:45.130Z,49.80
2022-12-19T06:21:16.990Z,54.80
2022-12-19T06:23:48.464Z,72.43
2022-12-19T06:26:20.437Z,68.27
2022-12-19T06:28:50.900Z,74.90
2022-12-19T06:31:22.070Z,58.87
2022-12-19T06:33:51.650Z,56.73
2022-12-19T06:36:23.455Z,68.25
2022-12-19T06:38:55.235Z,63.43
2022-12-19T06:41:42.196Z,65.13
2022-12-19T06:44:15.174Z,71.13
2022-12-19T06:46:45.229Z,57.20
2022-12-19T06:49:14.334Z,55.03
2022-12-19T06:51:44.377Z,53.85
2022-12-19T06:54:15.957Z,52.15
2022-12-19T06:56:46.032Z,46.47
2022-12-19T06:59:17.596Z,54.80
2022-12-19T07:01:58.006Z,70.63
2022-12-19T07:04:31.997Z,53.60
2022-12-19T07:07:02.593Z,45.63
2022-12-19T07:09:34.802Z,53.80
2022-12-19T07:12:04.678Z,60.43
2022-12-19T07:14:33.829Z,55.45
2022-12-19T07:17:05.130Z,54.33
2022-12-19T07:19:35.321Z,70.23
2022-12-19T07:22:06.908Z,54.07
2022-12-19T07:24:38.367Z,60.67
2022-12-19T07:27:08.545Z,52.73
2022-12-19T07:29:37.723Z,42.47
2022-12-19T07:32:07.281Z,64.45
2022-12-19T07:34:36.525Z,31.33
2022-12-19T07:37:06.840Z,44.67
2022-12-19T07:39:37.593Z,36.13
2022-12-19T07:42:07.233Z,64.10
2022-12-19T07:44:41.194Z,37.23
2022-12-19T07:47:10.849Z,38.38
2022-12-19T07:49:40.068Z,52.70
2022-12-19T07:52:09.664Z,48.53
2022-12-19T07:54:41.025Z,49.90
2022-12-19T07:57:10.581Z,58.07
2022-12-19T07:59:39.731Z,35.40
2022-12-19T08:02:09.431Z,44.80
2022-12-19T08:04:38.874Z,51.75
2022-12-19T08:07:08.446Z,47.40
2022-12-19T08:09:39.341Z,59.78
2022-12-19T08:12:09.134Z,42.47
2022-12-19T08:14:38.536Z,32.72
2022-12-19T08:17:23.266Z,34.97
2022-12-19T08:19:53.428Z,57.50
2022-12-19T08:24:55.926Z,43.70
2022-12-19T08:27:25.621Z,45.87
2022-12-19T08:29:55.226Z,51.40
2022-12-19T08:32:24.766Z,50.20
2022-12-19T08:34:54.785Z,42.83
2022-12-19T08:37:24.422Z,51.00
2022-12-19T08:39:55.263Z,48.90
2022-12-19T08:42:24.959Z,41.87
2022-12-19T08:44:54.310Z,33.97
2022-12-19T08:47:23.747Z,56.58
2022-12-19T08:49:53.014Z,42.60
2022-12-19T08:52:22.431Z,36.05
2022-12-19T08:54:51.796Z,48.00
2022-12-19T08:57:22.634Z,49.05
2022-12-19T08:59:52.150Z,47.77
2022-12-19T09:02:22.146Z,51.85
2022-12-19T09:05:57.825Z,46.22
2022-12-19T09:07:42.418Z,45.63
2022-12-19T09:10:11.997Z,56.70
2022-12-19T09:12:44.704Z,53.60
2022-12-19T09:15:14.297Z,45.47
2022-12-19T09:17:43.623Z,51.03
2022-12-19T09:20:22.808Z,58.20
2022-12-19T09:22:53.500Z,45.30
2022-12-19T09:25:23.129Z,61.58
2022-12-19T09:28:26.268Z,53.60
2022-12-19T09:30:45.077Z,54.97
2022-12-19T09:33:14.502Z,47.80
2022-12-19T09:35:52.454Z,48.25
2022-12-19T09:38:25.427Z,52.72
2022-12-19T09:41:07.811Z,44.53
2022-12-19T09:43:50.809Z,29.50
2022-12-19T09:46:23.083Z,52.50
2022-12-19T09:48:58.392Z,54.37
2022-12-19T09:51:36.741Z,57.37
2022-12-19T09:54:12.904Z,45.97
2022-12-19T09:56:46.498Z,55.33
2022-12-19T09:59:32.363Z,46.27
2022-12-19T10:02:33.267Z,42.00
2022-12-19T10:05:19.688Z,39.57
2022-12-19T10:08:08.475Z,53.10
2022-12-19T10:12:43.486Z,29.33
2022-12-19T10:13:57.252Z,32.45
2022-12-19T10:16:37.391Z,42.30
2022-12-19T10:19:10.570Z,59.90
2022-12-19T10:22:17.054Z,48.63
2022-12-19T10:25:08.921Z,50.13
2022-12-19T10:27:57.353Z,32.83
2022-12-19T10:30:32.306Z,44.67
2022-12-19T10:33:20.729Z,42.57
2022-12-19T10:36:02.222Z,47.00
2022-12-19T10:38:39.321Z,55.23
2022-12-19T10:41:19.469Z,32.37
2022-12-19T10:43:58.106Z,41.60
2022-12-19T10:46:39.183Z,28.77
2022-12-19T10:49:21.789Z,48.33
2022-12-19T10:52:02.546Z,51.17
2022-12-19T10:54:44.186Z,36.00
2022-12-19T10:57:24.524Z,40.13
2022-12-19T10:59:58.572Z,35.25
2022-12-19T11:02:44.897Z,28.73
2022-12-19T11:05:28.615Z,43.83
2022-12-19T11:08:18.675Z,44.03
2022-12-19T11:13:04.117Z,51.55
2022-12-19T11:17:24.254Z,34.17
2022-12-19T11:23:35.107Z,50.93
2022-12-19T11:29:27.068Z,50.87
2022-12-19T11:29:45.792Z,43.53
2022-12-19T11:30:37.766Z,43.33
2022-12-19T11:30:41.126Z,46.07
2022-12-19T11:34:15.023Z,40.87
2022-12-19T11:36:50.855Z,44.33
2022-12-19T11:39:27.368Z,50.10
2022-12-19T11:42:02.282Z,41.37
2022-12-19T11:44:40.250Z,40.23
2022-12-19T11:47:21.608Z,42.50
2022-12-19T11:49:59.091Z,44.77
2022-12-19T11:55:40.752Z,46.57
2022-12-19T11:58:12.430Z,36.90
2022-12-19T12:00:50.484Z,39.47
2022-12-19T12:03:58.316Z,43.53
2022-12-19T12:06:35.585Z,49.37
2022-12-19T12:14:20.108Z,48.13
2022-12-19T12:19:34.189Z,44.83
2022-12-19T12:29:15.676Z,46.57
2022-12-19T12:31:04.928Z,44.70
2022-12-19T12:31:10.130Z,51.27
2022-12-19T12:31:47.163Z,38.03
2022-12-19T12:31:57.404Z,47.00
2022-12-19T12:32:05.581Z,19.40
2022-12-19T12:35:46.219Z,51.72
2022-12-19T12:39:33.600Z,39.27
2022-12-19T12:42:17.519Z,48.03
2022-12-19T12:44:51.775Z,49.20
2022-12-19T12:47:24.622Z,52.37
2022-12-19T12:49:58.629Z,48.03
2022-12-19T12:52:35.460Z,54.10
2022-12-19T12:55:06.609Z,49.00
2022-12-19T12:57:39.358Z,45.37
2022-12-19T13:00:25.635Z,49.13
2022-12-19T13:03:05.860Z,45.73
2022-12-19T13:06:30.983Z,54.42
2022-12-19T13:09:25.954Z,46.75
2022-12-19T13:12:18.796Z,52.35
2022-12-19T13:14:50.597Z,49.10
2022-12-19T13:17:46.172Z,56.50
2022-12-19T13:20:44.462Z,45.45
2022-12-19T13:23:33.754Z,55.97
2022-12-19T13:26:02.800Z,58.97
2022-12-19T13:28:42.014Z,51.97
2022-12-19T13:31:36.794Z,58.08
2022-12-19T13:34:19.522Z,59.50
2022-12-19T13:39:49.477Z,67.80
2022-12-19T13:40:12.250Z,53.53
2022-12-19T13:43:12.474Z,48.78
2022-12-19T13:45:48.878Z,44.17
2022-12-19T13:48:27.446Z,54.20
2022-12-19T13:50:59.811Z,53.22
2022-12-19T13:53:31.419Z,51.10
2022-12-19T13:56:03.351Z,29.02
2022-12-19T13:58:36.059Z,44.38
2022-12-19T14:01:21.045Z,46.60
2022-12-19T14:03:54.303Z,42.90
2022-12-19T14:06:28.313Z,54.45
2022-12-19T14:11:25.901Z,53.03
2022-12-19T14:13:40.215Z,50.00
2022-12-19T14:15:13.138Z,58.92
2022-12-19T14:17:49.881Z,30.85
2022-12-19T14:22:02.715Z,61.53
2022-12-19T14:23:14.840Z,58.67
2022-12-19T14:28:17.072Z,61.78
2022-12-19T14:28:54.912Z,62.40
2022-12-19T14:31:24.893Z,48.08
2022-12-19T14:34:19.104Z,59.80
2022-12-19T14:36:51.261Z,54.15
2022-12-19T14:39:29.157Z,49.05
2022-12-19T14:42:31.769Z,59.15
2022-12-19T14:52:34.685Z,52.97
2022-12-19T14:53:34.037Z,51.53
2022-12-19T14:54:20.819Z,46.60
2022-12-19T14:56:02.117Z,45.85
2022-12-19T14:58:33.727Z,57.75
2022-12-19T15:01:10.982Z,57.78
2022-12-19T15:03:24.630Z,54.70
2022-12-19T15:07:05.297Z,47.85
2022-12-19T15:10:58.287Z,66.72
2022-12-19T15:14:48.854Z,53.15
2022-12-19T15:15:18.723Z,59.85
2022-12-19T15:17:50.697Z,57.08
2022-12-19T15:20:20.525Z,56.72
2022-12-19T15:22:51.911Z,48.15
2022-12-19T15:26:01.393Z,57.95
2022-12-19T15:28:16.926Z,37.88
2022-12-19T15:30:51.705Z,56.28
2022-12-19T15:33:21.762Z,46.13
2022-12-19T15:35:51.349Z,61.92
2022-12-19T15:38:20.846Z,58.90
2022-12-19T15:40:50.473Z,49.05
2022-12-19T15:44:01.831Z,54.92
2022-12-19T15:46:14.497Z,62.40
2022-12-19T15:48:50.437Z,65.60
2022-12-19T15:51:20.014Z,54.55
2022-12-19T15:53:49.144Z,56.93
2022-12-19T15:56:28.860Z,62.13
2022-12-19T15:59:02.921Z,60.50
2022-12-19T16:01:34.254Z,58.25
2022-12-19T16:04:05.001Z,68.22
2022-12-19T16:06:34.702Z,54.08
2022-12-19T16:09:04.085Z,64.00
2022-12-19T16:11:33.620Z,61.67
2022-12-19T16:14:04.154Z,64.70
2022-12-19T16:16:33.580Z,54.60
2022-12-19T16:19:02.823Z,45.45
2022-12-19T16:21:34.545Z,64.15
2022-12-19T16:24:04.941Z,69.05
2022-12-19T16:26:39.019Z,71.40
2022-12-19T16:29:18.311Z,57.22
2022-12-19T16:31:48.052Z,61.10
2022-12-19T16:34:19.400Z,69.43
2022-12-19T16:36:49.552Z,63.97
2022-12-19T16:39:19.448Z,47.30
2022-12-19T16:41:49.159Z,63.78
2022-12-19T16:44:21.824Z,59.50
2022-12-19T16:46:52.990Z,68.60
2022-12-19T16:49:23.894Z,64.50
2022-12-19T16:51:54.263Z,71.22
2022-12-19T16:54:23.369Z,69.38
2022-12-19T16:56:55.270Z,55.50
2022-12-19T16:59:32.005Z,62.63
2022-12-19T17:02:02.224Z,61.80
2022-12-19T17:07:01.141Z,44.60
2022-12-19T17:09:30.540Z,66.32
2022-12-19T17:12:02.509Z,60.67
2022-12-19T17:14:33.973Z,67.60
2022-12-19T17:17:03.552Z,72.47
2022-12-19T17:19:38.097Z,64.65
2022-12-19T17:22:14.221Z,66.28
2022-12-19T17:24:44.913Z,66.78
2022-12-19T17:27:17.296Z,62.63
2022-12-19T17:29:47.953Z,63.47
2022-12-19T17:32:23.560Z,73.18
2022-12-19T17:34:54.097Z,52.80
2022-12-19T17:37:23.917Z,58.58
2022-12-19T17:39:53.231Z,74.50
2022-12-19T17:42:24.601Z,54.58
2022-12-19T17:44:55.686Z,55.03
2022-12-19T17:47:25.729Z,70.45
2022-12-19T17:49:54.917Z,64.85
2022-12-19T17:52:24.346Z,68.97
2022-12-19T17:54:53.471Z,41.40
2022-12-19T17:57:23.235Z,64.25
2022-12-19T17:59:52.370Z,77.13
2022-12-19T18:02:25.889Z,59.50
2022-12-19T18:04:58.526Z,60.13
2022-12-19T18:07:28.062Z,65.15
2022-12-19T18:09:57.291Z,63.35
2022-12-19T18:12:26.984Z,66.63
2022-12-19T18:14:56.134Z,70.07
2022-12-19T18:17:27.517Z,67.97
2022-12-19T18:19:56.978Z,61.08
2022-12-19T18:22:26.399Z,59.22
2022-12-19T18:24:56.441Z,61.08
2022-12-19T18:27:25.989Z,60.97
2022-12-19T18:29:55.773Z,53.38
2022-12-19T18:34:55.505Z,75.03
2022-12-19T18:37:24.955Z,68.60
2022-12-19T18:39:55.862Z,65.28
2022-12-19T18:42:25.382Z,61.00
2022-12-19T18:44:54.527Z,56.05
2022-12-19T18:47:26.621Z,73.15
2022-12-19T18:49:55.921Z,68.45
2022-12-19T18:52:25.963Z,64.88
2022-12-19T18:57:24.672Z,66.40
2022-12-19T18:59:53.944Z,67.88
2022-12-19T19:02:28.947Z,55.63
2022-12-19T19:04:59.379Z,66.55
2022-12-19T19:07:29.168Z,67.85
2022-12-19T19:09:58.298Z,74.82
2022-12-19T19:12:52.855Z,63.97
2022-12-19T19:15:24.616Z,63.17
2022-12-19T19:18:02.933Z,62.88
2022-12-19T19:20:36.267Z,63.17
2022-12-19T19:23:09.873Z,68.75
2022-12-19T19:25:41.038Z,72.90
2022-12-19T19:28:10.644Z,69.43
2022-12-19T19:30:41.505Z,55.33
2022-12-19T19:33:20.992Z,65.60
2022-12-19T19:35:53.806Z,68.80
2022-12-19T19:38:25.720Z,75.22
2022-12-19T19:40:55.007Z,74.25
2022-12-19T19:43:24.422Z,61.70
2022-12-19T19:45:53.753Z,74.35
2022-12-19T19:48:24.574Z,68.35
2022-12-19T19:50:53.820Z,65.70
2022-12-19T19:53:23.658Z,86.55
2022-12-19T19:58:32.762Z,77.53
2022-12-19T20:01:08.502Z,71.55
2022-12-19T20:03:41.947Z,65.53
2022-12-19T20:06:13.550Z,67.28
2022-12-19T20:08:42.962Z,70.88
2022-12-19T20:11:12.363Z,57.30
2022-12-19T20:13:41.811Z,77.63
2022-12-19T20:16:13.317Z,72.35
2022-12-19T20:18:48.847Z,72.72
2022-12-19T20:21:19.815Z,67.25
2022-12-19T20:23:50.344Z,84.32
2022-12-19T20:26:20.270Z,75.18
2022-12-19T20:28:51.470Z,77.40
2022-12-19T20:31:22.816Z,63.75
2022-12-19T20:33:56.239Z,59.53
2022-12-19T20:36:26.295Z,69.20
2022-12-19T20:38:55.901Z,68.47
2022-12-19T20:41:25.139Z,72.63
2022-12-19T20:43:55.113Z,68.80
2022-12-19T20:46:25.236Z,69.22
2022-12-19T20:48:56.505Z,64.95
2022-12-19T20:51:27.767Z,44.10
2022-12-19T20:56:26.234Z,62.67
2022-12-19T20:58:56.042Z,69.35
2022-12-19T21:01:26.710Z,62.67
2022-12-19T21:03:58.365Z,61.88
2022-12-19T21:06:27.909Z,63.13
2022-12-19T21:08:58.079Z,65.22
2022-12-19T21:11:28.263Z,71.18
2022-12-19T21:13:58.132Z,67.15
2022-12-19T21:16:27.361Z,54.55
2022-12-19T21:18:58.408Z,60.63
2022-12-19T21:21:29.266Z,58.25
2022-12-19T21:23:58.705Z,64.00
2022-12-19T21:26:27.844Z,70.35
2022-12-19T21:28:59.403Z,63.65
2022-12-19T21:31:31.294Z,63.30
2022-12-19T21:34:03.785Z,59.40
2022-12-19T21:36:33.570Z,59.53
2022-12-19T21:39:03.189Z,59.72
2022-12-19T21:41:33.488Z,60.72
2022-12-19T21:44:03.064Z,62.97
2022-12-19T21:46:34.048Z,62.28
2022-12-19T21:49:05.172Z,58.35
2022-12-19T21:51:34.411Z,59.10
2022-12-19T21:54:07.018Z,53.38
2022-12-19T21:56:38.968Z,51.42
2022-12-19T21:59:11.968Z,62.35
2022-12-19T22:01:42.379Z,54.80
2022-12-19T22:04:15.907Z,47.15
2022-12-19T22:06:45.468Z,49.60
2022-12-19T22:09:18.183Z,61.03
2022-12-19T22:11:48.959Z,51.90
2022-12-19T22:14:19.221Z,46.92
2022-12-19T22:16:48.570Z,46.33
2022-12-19T22:19:20.354Z,40.10
2022-12-19T22:21:49.753Z,45.08
2022-12-19T22:24:20.090Z,41.58
2022-12-19T22:26:49.568Z,46.17
2022-12-19T22:29:19.350Z,38.42
2022-12-19T22:31:49.861Z,33.78
2022-12-19T22:34:22.471Z,37.20
2022-12-19T22:36:51.827Z,36.50
2022-12-19T22:39:22.527Z,29.48
2022-12-19T22:41:52.519Z,34.28
2022-12-19T22:46:52.112Z,28.02
2022-12-19T22:49:22.969Z,29.98
2022-12-19T22:51:52.209Z,27.70
2022-12-19T22:54:21.648Z,33.10
2022-12-19T22:56:52.289Z,28.10
2022-12-19T22:59:22.136Z,30.90
2022-12-19T23:01:51.524Z,31.20
2022-12-19T23:04:22.733Z,27.67
2022-12-19T23:06:52.351Z,24.77
2022-12-19T23:09:21.790Z,27.92
2022-12-19T23:11:51.507Z,28.52
2022-12-19T23:14:21.906Z,26.10
2022-12-19T23:16:51.295Z,24.77
2022-12-19T23:19:22.283Z,23.65
2022-12-19T23:21:51.729Z,25.80
2022-12-19T23:24:21.107Z,24.80
2022-12-19T23:26:50.991Z,23.80
2022-12-19T23:29:20.404Z,23.40
2022-12-19T23:31:49.715Z,23.40
2022-12-19T23:34:19.851Z,18.92
2022-12-19T23:39:39.865Z,17.70
2022-12-19T23:42:09.407Z,18.00
2022-12-19T23:44:39.244Z,15.18
2022-12-19T23:47:08.492Z,16.63
2022-12-19T23:49:37.953Z,19.05
2022-12-19T23:52:08.698Z,15.50
2022-12-19T23:54:38.405Z,16.52
2022-12-19T23:57:07.724Z,14.90
2022-12-19T23:59:37.268Z,11.07
